createdAt,value
2018-06-25T00:01:58.137Z,101196.86
2018-06-25T00:04:27.290Z,101194.27
2018-06-25T00:06:56.472Z,101195.58
2018-06-25T00:09:25.865Z,101196.02
2018-06-25T00:11:54.993Z,101189.45
2018-06-25T00:14:24.176Z,101182.02
2018-06-25T00:16:53.326Z,101182.88
2018-06-25T00:19:22.559Z,101177.62
2018-06-25T00:21:51.775Z,101184.62
2018-06-25T00:24:20.918Z,101179.33
2018-06-25T00:26:50.201Z,101184.11
2018-06-25T00:29:19.361Z,101177.97
2018-06-25T00:31:48.533Z,101180.59
2018-06-25T00:34:17.728Z,101177.07
2018-06-25T00:36:46.928Z,101172.65
2018-06-25T00:39:16.014Z,101165.17
2018-06-25T00:41:45.110Z,101157.67
2018-06-25T00:44:14.284Z,101159.77
2018-06-25T00:46:43.389Z,101159.67
2018-06-25T00:49:12.509Z,101157.44
2018-06-25T00:51:41.644Z,101160.49
2018-06-25T00:54:10.786Z,101160.06
2018-06-25T00:56:39.936Z,101164.89
2018-06-25T00:59:26.395Z,101164.09
2018-06-25T01:01:55.569Z,101161.95
2018-06-25T01:04:24.701Z,101161.55
2018-06-25T01:06:53.891Z,101161.16
2018-06-25T01:09:23.042Z,101165.53
2018-06-25T01:11:52.698Z,101173.02
2018-06-25T01:14:21.847Z,101171.30
2018-06-25T01:16:51.556Z,101178.73
2018-06-25T01:19:20.713Z,101180.05
2018-06-25T01:21:49.861Z,101182.67
2018-06-25T01:24:19.041Z,101182.23
2018-06-25T01:26:48.166Z,101182.67
2018-06-25T01:29:17.362Z,101176.55
2018-06-25T01:31:46.496Z,101189.26
2018-06-25T01:34:15.605Z,101176.57
2018-06-25T01:36:44.802Z,101181.84
2018-06-25T01:39:13.990Z,101170.03
2018-06-25T01:41:43.203Z,101172.66
2018-06-25T01:44:12.482Z,101170.45
2018-06-25T01:46:41.678Z,101171.33
2018-06-25T01:49:10.781Z,101166.09
2018-06-25T01:51:40.014Z,101167.44
2018-06-25T01:54:09.181Z,101164.83
2018-06-25T01:56:38.371Z,101170.09
2018-06-25T01:59:07.568Z,101175.33
2018-06-25T02:01:37.142Z,101174.48
2018-06-25T02:04:06.270Z,101177.11
2018-06-25T02:06:35.639Z,101181.91
2018-06-25T02:09:08.005Z,101179.72
2018-06-25T02:11:37.080Z,101184.08
2018-06-25T02:14:06.225Z,101183.62
2018-06-25T02:16:35.526Z,101185.35
2018-06-25T02:19:04.848Z,101188.39
2018-06-25T02:21:33.995Z,101188.38
2018-06-25T02:24:03.160Z,101184.42
2018-06-25T02:26:32.304Z,101180.05
2018-06-25T02:29:01.434Z,101179.61
2018-06-25T02:31:30.585Z,101182.67
2018-06-25T02:33:59.736Z,101183.98
2018-06-25T02:36:28.853Z,101190.14
2018-06-25T02:38:58.103Z,101193.20
2018-06-25T02:41:27.317Z,101191.00
2018-06-25T02:43:56.515Z,101191.44
2018-06-25T02:46:25.635Z,101186.19
2018-06-25T02:48:54.923Z,101186.20
2018-06-25T02:51:24.072Z,101187.09
2018-06-25T02:53:53.212Z,101183.13
2018-06-25T02:56:22.416Z,101179.61
2018-06-25T02:58:51.633Z,101187.93
2018-06-25T03:01:20.797Z,101192.75
2018-06-25T03:03:50.010Z,101194.06
2018-06-25T03:06:19.154Z,101193.19
2018-06-25T03:08:48.321Z,101195.81
2018-06-25T03:11:17.467Z,101207.63
2018-06-25T03:13:46.694Z,101215.50
2018-06-25T03:16:15.915Z,101216.80
2018-06-25T03:18:45.275Z,101212.44
2018-06-25T03:21:14.462Z,101212.85
2018-06-25T03:23:43.590Z,101213.73
2018-06-25T03:26:12.745Z,101216.80
2018-06-25T03:28:42.080Z,101219.44
2018-06-25T03:31:11.287Z,101221.64
2018-06-25T03:33:40.449Z,101222.06
2018-06-25T03:36:09.595Z,101223.36
2018-06-25T03:38:38.721Z,101227.73
2018-06-25T03:41:07.866Z,101223.34
2018-06-25T03:43:37.089Z,101225.11
2018-06-25T03:46:06.304Z,101229.47
2018-06-25T03:48:35.421Z,101224.19
2018-06-25T03:51:04.566Z,101227.24
2018-06-25T03:53:33.841Z,101218.48
2018-06-25T03:56:03.022Z,101222.88
2018-06-25T03:58:32.177Z,101221.58
2018-06-25T04:01:01.342Z,101227.70
2018-06-25T04:03:30.505Z,101225.96
2018-06-25T04:05:59.726Z,101236.48
2018-06-25T04:08:28.925Z,101241.30
2018-06-25T04:10:58.039Z,101244.42
2018-06-25T04:13:27.168Z,101251.91
2018-06-25T04:15:56.355Z,101251.08
2018-06-25T04:18:25.502Z,101256.81
2018-06-25T04:20:54.624Z,101259.50
2018-06-25T04:23:23.736Z,101259.98
2018-06-25T04:25:52.906Z,101260.88
2018-06-25T04:28:22.047Z,101256.56
2018-06-25T04:30:51.233Z,101272.81
2018-06-25T04:33:20.495Z,101277.67
2018-06-25T04:35:49.701Z,101282.96
2018-06-25T04:38:18.860Z,101276.00
2018-06-25T04:40:48.034Z,101278.64
2018-06-25T04:43:17.237Z,101278.65
2018-06-25T04:45:47.379Z,101287.87
2018-06-25T04:48:16.522Z,101285.28
2018-06-25T04:50:45.696Z,101282.66
2018-06-25T04:53:14.835Z,101280.09
2018-06-25T04:55:44.139Z,101278.78
2018-06-25T04:58:13.311Z,101284.93
2018-06-25T05:00:42.433Z,101281.02
2018-06-25T05:03:11.608Z,101281.50
2018-06-25T05:05:40.827Z,101285.47
2018-06-25T05:08:10.913Z,101284.66
2018-06-25T05:10:40.064Z,101295.17
2018-06-25T05:13:09.385Z,101297.81
2018-06-25T05:15:38.592Z,101301.32
2018-06-25T05:18:07.775Z,101307.46
2018-06-25T05:20:37.634Z,101314.04
2018-06-25T05:23:07.034Z,101313.61
2018-06-25T05:25:36.253Z,101314.47
2018-06-25T05:28:05.569Z,101308.34
2018-06-25T05:30:34.702Z,101309.66
2018-06-25T05:33:03.869Z,101314.92
2018-06-25T05:35:33.586Z,101314.94
2018-06-25T05:38:02.845Z,101319.32
2018-06-25T05:40:35.084Z,101319.73
2018-06-25T05:43:04.327Z,101316.23
2018-06-25T05:45:35.299Z,101309.66
2018-06-25T05:48:04.475Z,101310.95
2018-06-25T05:50:33.740Z,101311.40
2018-06-25T05:53:02.945Z,101309.61
2018-06-25T05:55:32.088Z,101315.33
2018-06-25T05:58:01.333Z,101314.41
2018-06-25T06:00:30.526Z,101321.88
2018-06-25T06:02:59.751Z,101324.08
2018-06-25T06:05:28.923Z,101324.52
2018-06-25T06:07:58.093Z,101324.95
2018-06-25T06:10:27.270Z,101321.00
2018-06-25T06:12:56.575Z,101321.88
2018-06-25T06:15:25.959Z,101324.08
2018-06-25T06:17:55.737Z,101321.87
2018-06-25T06:20:25.097Z,101321.87
2018-06-25T06:22:54.299Z,101324.91
2018-06-25T06:25:23.519Z,101327.98
2018-06-25T06:27:52.844Z,101332.83
2018-06-25T06:30:22.152Z,101326.71
2018-06-25T06:32:51.546Z,101320.56
2018-06-25T06:35:20.750Z,101329.34
2018-06-25T06:37:50.210Z,101335.94
2018-06-25T06:40:19.186Z,101331.11
2018-06-25T06:42:48.394Z,101331.11
2018-06-25T06:45:17.678Z,101331.55
2018-06-25T06:47:47.108Z,101337.73
2018-06-25T06:50:16.341Z,101339.92
2018-06-25T06:52:45.505Z,101349.58
2018-06-25T06:55:15.420Z,101349.58
2018-06-25T06:57:44.598Z,101345.21
2018-06-25T07:00:13.849Z,101355.30
2018-06-25T07:02:43.154Z,101363.66
2018-06-25T07:05:12.378Z,101360.14
2018-06-25T07:07:41.826Z,101352.23
2018-06-25T07:10:11.204Z,101351.35
2018-06-25T07:12:40.514Z,101361.00
2018-06-25T07:15:09.742Z,101353.99
2018-06-25T07:17:39.374Z,101357.50
2018-06-25T07:20:08.662Z,101357.95
2018-06-25T07:22:37.975Z,101364.54
2018-06-25T07:25:07.342Z,101363.65
2018-06-25T07:27:36.757Z,101364.96
2018-06-25T07:30:07.143Z,101359.27
2018-06-25T07:32:36.392Z,101357.92
2018-06-25T07:35:05.867Z,101359.25
2018-06-25T07:37:35.069Z,101367.12
2018-06-25T07:40:04.286Z,101358.36
2018-06-25T07:42:33.610Z,101361.89
2018-06-25T07:45:02.718Z,101365.39
2018-06-25T07:47:31.896Z,101366.73
2018-06-25T07:50:01.069Z,101368.04
2018-06-25T07:52:30.221Z,101366.27
2018-06-25T07:54:59.394Z,101367.16
2018-06-25T07:57:28.627Z,101365.37
2018-06-25T07:59:57.784Z,101363.17
2018-06-25T08:02:26.978Z,101372.86
2018-06-25T08:04:56.272Z,101371.98
2018-06-25T08:07:25.550Z,101376.80
2018-06-25T08:09:54.720Z,101370.64
2018-06-25T08:12:24.005Z,101368.45
2018-06-25T08:14:53.258Z,101378.55
2018-06-25T08:17:22.452Z,101373.28
2018-06-25T08:19:51.640Z,101377.24
2018-06-25T08:22:20.825Z,101375.48
2018-06-25T08:24:49.972Z,101384.24
2018-06-25T08:27:19.194Z,101393.44
2018-06-25T08:29:48.444Z,101385.03
2018-06-25T08:32:17.669Z,101390.70
2018-06-25T08:34:46.819Z,101394.21
2018-06-25T08:37:16.054Z,101397.73
2018-06-25T08:39:45.317Z,101395.47
2018-06-25T08:42:14.548Z,101402.84
2018-06-25T08:44:43.693Z,101403.57
2018-06-25T08:47:12.924Z,101406.05
2018-06-25T08:49:42.096Z,101400.19
2018-06-25T08:52:11.218Z,101402.92
2018-06-25T08:54:40.439Z,101404.43
2018-06-25T08:57:09.673Z,101412.59
2018-06-25T08:59:38.850Z,101406.81
2018-06-25T09:02:08.049Z,101401.10
2018-06-25T09:04:37.698Z,101414.54
2018-06-25T09:07:06.898Z,101404.34
2018-06-25T09:09:36.121Z,101408.59
2018-06-25T09:12:05.243Z,101404.48
2018-06-25T09:14:34.403Z,101410.24
2018-06-25T09:17:03.603Z,101403.11
2018-06-25T09:19:32.920Z,101406.08
2018-06-25T09:22:02.166Z,101402.14
2018-06-25T09:24:31.498Z,101404.75
2018-06-25T09:27:00.748Z,101419.25
2018-06-25T09:29:30.018Z,101416.20
2018-06-25T09:31:59.298Z,101419.78
2018-06-25T09:34:33.763Z,101417.46
2018-06-25T09:37:03.086Z,101418.46
2018-06-25T09:39:32.631Z,101418.75
2018-06-25T09:42:01.970Z,101421.94
2018-06-25T09:44:31.337Z,101420.00
2018-06-25T09:47:00.588Z,101419.89
2018-06-25T09:49:29.874Z,101425.11
2018-06-25T09:52:00.348Z,101418.82
2018-06-25T09:54:29.929Z,101424.00
2018-06-25T09:56:59.303Z,101426.17
2018-06-25T09:59:28.600Z,101420.30
2018-06-25T10:01:57.846Z,101419.91
2018-06-25T10:04:27.206Z,101418.55
2018-06-25T10:06:56.465Z,101421.11
2018-06-25T10:09:25.708Z,101418.54
2018-06-25T10:11:54.996Z,101419.44
2018-06-25T10:14:24.302Z,101418.80
2018-06-25T10:16:54.118Z,101417.23
2018-06-25T10:19:23.422Z,101424.59
2018-06-25T10:21:52.950Z,101426.41
2018-06-25T10:24:22.335Z,101421.58
2018-06-25T10:26:51.695Z,101418.66
2018-06-25T10:29:20.978Z,101414.28
2018-06-25T10:31:50.168Z,101418.48
2018-06-25T10:34:19.349Z,101410.29
2018-06-25T10:36:48.633Z,101413.84
2018-06-25T10:39:17.924Z,101415.54
2018-06-25T10:41:47.325Z,101401.97
2018-06-25T10:44:17.010Z,101403.78
2018-06-25T10:46:46.987Z,101402.62
2018-06-25T10:49:16.136Z,101401.45
2018-06-25T10:51:45.341Z,101398.03
2018-06-25T10:54:14.547Z,101399.86
2018-06-25T10:56:48.012Z,101392.63
2018-06-25T10:59:17.034Z,101389.80
2018-06-25T11:01:46.242Z,101395.16
2018-06-25T11:04:15.529Z,101383.98
2018-06-25T11:06:44.797Z,101375.72
2018-06-25T11:09:14.482Z,101381.42
2018-06-25T11:11:44.093Z,101384.55
2018-06-25T11:14:13.482Z,101376.64
2018-06-25T11:16:42.742Z,101386.63
2018-06-25T11:19:11.903Z,101373.17
2018-06-25T11:21:41.175Z,101369.69
2018-06-25T11:24:10.559Z,101372.81
2018-06-25T11:26:39.856Z,101369.22
2018-06-25T11:29:09.180Z,101367.45
2018-06-25T11:31:38.479Z,101373.91
2018-06-25T11:34:07.722Z,101368.13
2018-06-25T11:36:36.938Z,101357.73
2018-06-25T11:39:10.076Z,101353.63
2018-06-25T11:41:41.035Z,101359.09
2018-06-25T11:44:10.165Z,101356.52
2018-06-25T11:46:39.322Z,101356.12
2018-06-25T11:49:08.501Z,101359.42
2018-06-25T11:51:37.986Z,101356.24
2018-06-25T11:54:07.897Z,101348.85
2018-06-25T11:56:37.304Z,101346.90
2018-06-25T11:59:06.712Z,101345.89
2018-06-25T12:01:36.189Z,101339.05
2018-06-25T12:04:05.405Z,101341.36
2018-06-25T12:06:34.523Z,101344.91
2018-06-25T12:09:04.105Z,101345.72
2018-06-25T12:11:33.314Z,101342.37
2018-06-25T12:14:02.813Z,101344.52
2018-06-25T12:16:31.957Z,101342.52
2018-06-25T12:19:01.424Z,101333.15
2018-06-25T12:21:30.597Z,101337.86
2018-06-25T12:24:00.002Z,101333.36
2018-06-25T12:26:29.305Z,101335.26
2018-06-25T12:28:58.467Z,101332.12
2018-06-25T12:31:27.861Z,101326.62
2018-06-25T12:33:57.030Z,101327.49
2018-06-25T12:36:26.197Z,101326.61
2018-06-25T12:38:55.414Z,101325.53
2018-06-25T12:41:24.739Z,101325.73
2018-06-25T12:43:53.893Z,101330.05
2018-06-25T12:46:41.358Z,101326.27
2018-06-25T12:49:10.515Z,101330.94
2018-06-25T12:51:39.662Z,101326.28
2018-06-25T12:54:08.869Z,101315.56
2018-06-25T12:56:38.078Z,101330.73
2018-06-25T12:59:07.403Z,101322.88
2018-06-25T13:01:36.548Z,101326.92
2018-06-25T13:04:05.763Z,101321.67
2018-06-25T13:06:35.047Z,101317.33
2018-06-25T13:09:06.207Z,101324.48
2018-06-25T13:11:35.540Z,101324.39
2018-06-25T13:14:04.777Z,101325.05
2018-06-25T13:16:34.166Z,101316.79
2018-06-25T13:19:03.567Z,101321.45
2018-06-25T13:21:32.745Z,101323.00
2018-06-25T13:24:02.086Z,101317.77
2018-06-25T13:26:31.354Z,101322.36
2018-06-25T13:29:00.542Z,101326.11
2018-06-25T13:31:29.938Z,101323.14
2018-06-25T13:33:59.093Z,101327.50
2018-06-25T13:36:28.447Z,101326.91
2018-06-25T13:38:57.789Z,101330.28
2018-06-25T13:41:27.103Z,101336.02
2018-06-25T13:43:56.377Z,101329.53
2018-06-25T13:46:25.711Z,101331.14
2018-06-25T13:48:55.091Z,101324.61
2018-06-25T13:51:24.293Z,101326.70
2018-06-25T13:53:53.618Z,101323.80
2018-06-25T13:56:22.980Z,101321.41
2018-06-25T13:58:52.231Z,101324.61
2018-06-25T14:01:21.782Z,101326.20
2018-06-25T14:03:51.013Z,101323.88
2018-06-25T14:06:20.279Z,101330.34
2018-06-25T14:08:49.476Z,101326.45
2018-06-25T14:11:18.707Z,101321.84
2018-06-25T14:13:48.015Z,101323.80
2018-06-25T14:16:17.394Z,101324.59
2018-06-25T14:18:46.712Z,101322.89
2018-06-25T14:21:15.931Z,101320.11
2018-06-25T14:23:50.966Z,101327.77
2018-06-25T14:26:20.286Z,101326.38
2018-06-25T14:28:49.545Z,101322.78
2018-06-25T14:31:22.903Z,101320.57
2018-06-25T14:33:57.568Z,101320.58
2018-06-25T14:36:27.012Z,101316.86
2018-06-25T14:38:56.330Z,101320.12
2018-06-25T14:41:25.823Z,101312.58
2018-06-25T14:43:55.040Z,101316.27
2018-06-25T14:46:24.344Z,101324.93
2018-06-25T14:48:53.630Z,101317.20
2018-06-25T14:51:23.797Z,101320.06
2018-06-25T14:53:53.272Z,101320.33
2018-06-25T14:56:22.752Z,101311.59
2018-06-25T14:58:51.956Z,101314.84
2018-06-25T15:01:21.254Z,101307.33
2018-06-25T15:03:50.409Z,101302.10
2018-06-25T15:06:19.626Z,101300.91
2018-06-25T15:08:48.797Z,101311.78
2018-06-25T15:11:18.125Z,101308.05
2018-06-25T15:13:47.383Z,101305.45
2018-06-25T15:16:16.626Z,101311.13
2018-06-25T15:18:45.833Z,101306.48
2018-06-25T15:21:14.983Z,101309.99
2018-06-25T15:23:44.244Z,101314.28
2018-06-25T15:26:13.434Z,101311.13
2018-06-25T15:28:42.591Z,101309.17
2018-06-25T15:31:11.721Z,101312.57
2018-06-25T15:33:40.878Z,101311.10
2018-06-25T15:36:10.054Z,101301.49
2018-06-25T15:38:39.304Z,101296.25
2018-06-25T15:41:08.451Z,101298.19
2018-06-25T15:43:37.758Z,101293.36
2018-06-25T15:46:07.043Z,101297.36
2018-06-25T15:48:36.235Z,101297.95
2018-06-25T15:51:05.457Z,101297.63
2018-06-25T15:53:34.692Z,101298.34
2018-06-25T15:56:03.912Z,101295.14
2018-06-25T15:58:33.041Z,101291.69
2018-06-25T16:01:02.249Z,101294.05
2018-06-25T16:03:31.505Z,101290.06
2018-06-25T16:06:00.800Z,101284.78
2018-06-25T16:08:30.047Z,101289.50
2018-06-25T16:10:59.535Z,101287.66
2018-06-25T16:13:28.725Z,101284.02
2018-06-25T16:15:57.983Z,101293.56
2018-06-25T16:18:27.320Z,101291.16
2018-06-25T16:20:56.584Z,101278.89
2018-06-25T16:23:25.910Z,101285.08
2018-06-25T16:25:55.190Z,101282.95
2018-06-25T16:28:24.383Z,101285.80
2018-06-25T16:30:53.577Z,101284.27
2018-06-25T16:33:22.742Z,101284.86
2018-06-25T16:35:52.234Z,101295.99
2018-06-25T16:38:21.602Z,101297.36
2018-06-25T16:40:50.857Z,101298.05
2018-06-25T16:43:20.469Z,101301.89
2018-06-25T16:45:49.693Z,101307.48
2018-06-25T16:48:18.871Z,101311.59
2018-06-25T16:50:48.138Z,101317.94
2018-06-25T16:53:17.308Z,101314.63
2018-06-25T16:55:46.683Z,101322.43
2018-06-25T16:58:15.930Z,101323.55
2018-06-25T17:00:45.108Z,101325.95
2018-06-25T17:03:14.459Z,101315.54
2018-06-25T17:05:43.790Z,101326.36
2018-06-25T17:08:13.016Z,101323.02
2018-06-25T17:10:42.358Z,101318.73
2018-06-25T17:13:11.465Z,101324.55
2018-06-25T17:15:40.702Z,101318.87
2018-06-25T17:18:09.898Z,101320.30
2018-06-25T17:20:39.165Z,101323.03
2018-06-25T17:23:08.502Z,101317.78
2018-06-25T17:25:37.775Z,101307.33
2018-06-25T17:28:07.041Z,101306.08
2018-06-25T17:30:36.218Z,101307.48
2018-06-25T17:33:05.982Z,101306.18
2018-06-25T17:35:35.193Z,101307.50
2018-06-25T17:38:04.414Z,101301.70
2018-06-25T17:40:33.353Z,101305.66
2018-06-25T17:43:02.479Z,101302.62
2018-06-25T17:45:31.624Z,101301.45
2018-06-25T17:48:00.845Z,101310.48
2018-06-25T17:50:30.071Z,101314.14
2018-06-25T17:52:59.258Z,101316.06
2018-06-25T17:55:28.426Z,101319.70
2018-06-25T17:57:57.858Z,101322.53
2018-06-25T18:00:27.028Z,101326.23
2018-06-25T18:02:56.223Z,101329.92
2018-06-25T18:05:25.399Z,101326.56
2018-06-25T18:07:54.542Z,101335.52
2018-06-25T18:10:23.676Z,101332.14
2018-06-25T18:12:52.826Z,101334.89
2018-06-25T18:15:21.993Z,101339.00
2018-06-25T18:17:51.137Z,101335.55
2018-06-25T18:20:20.282Z,101332.14
2018-06-25T18:22:49.413Z,101340.58
2018-06-25T18:25:18.561Z,101343.31
2018-06-25T18:27:47.686Z,101342.08
2018-06-25T18:30:16.840Z,101345.70
2018-06-25T18:32:45.997Z,101343.98
2018-06-25T18:35:15.190Z,101345.78
2018-06-25T18:37:44.350Z,101343.62
2018-06-25T18:40:13.469Z,101353.34
2018-06-25T18:42:44.659Z,101348.53
2018-06-25T18:45:13.870Z,101352.57
2018-06-25T18:47:42.999Z,101360.55
2018-06-25T18:50:12.152Z,101369.02
2018-06-25T18:52:41.320Z,101363.77
2018-06-25T18:55:10.515Z,101368.67
2018-06-25T18:57:39.616Z,101368.72
2018-06-25T19:00:10.236Z,101372.74
2018-06-25T19:02:39.472Z,101382.89
2018-06-25T19:05:08.933Z,101380.28
2018-06-25T19:07:38.109Z,101386.51
2018-06-25T19:10:07.241Z,101383.02
2018-06-25T19:12:36.368Z,101394.48
2018-06-25T19:15:06.168Z,101398.91
2018-06-25T19:17:35.330Z,101398.08
2018-06-25T19:20:04.977Z,101405.58
2018-06-25T19:22:34.154Z,101406.07
2018-06-25T19:25:03.446Z,101402.13
2018-06-25T19:27:32.571Z,101406.97
2018-06-25T19:30:01.816Z,101411.84
2018-06-25T19:32:31.275Z,101409.22
2018-06-25T19:35:00.441Z,101411.86
2018-06-25T19:37:29.606Z,101417.14
2018-06-25T19:39:58.556Z,101417.17
2018-06-25T19:42:27.757Z,101422.89
2018-06-25T19:44:56.917Z,101422.45
2018-06-25T19:47:26.134Z,101433.47
2018-06-25T19:49:55.408Z,101435.23
2018-06-25T19:52:24.589Z,101425.12
2018-06-25T19:54:53.724Z,101428.64
2018-06-25T19:57:22.926Z,101433.47
2018-06-25T19:59:52.091Z,101432.59
2018-06-25T20:02:21.536Z,101447.09
2018-06-25T20:04:50.819Z,101447.53
2018-06-25T20:07:20.067Z,101446.22
2018-06-25T20:09:49.484Z,101444.48
2018-06-25T20:12:18.959Z,101448.00
2018-06-25T20:14:48.435Z,101451.51
2018-06-25T20:17:17.714Z,101453.22
2018-06-25T20:19:46.950Z,101454.56
2018-06-25T20:22:16.250Z,101447.97
2018-06-25T20:24:45.706Z,101454.55
2018-06-25T20:27:15.147Z,101454.58
2018-06-25T20:29:44.343Z,101453.69
2018-06-25T20:32:13.607Z,101451.47
2018-06-25T20:34:42.874Z,101454.13
2018-06-25T20:37:12.152Z,101458.94
2018-06-25T20:39:41.487Z,101456.28
2018-06-25T20:42:10.687Z,101452.35
2018-06-25T20:44:39.879Z,101456.29
2018-06-25T20:47:09.068Z,101457.59
2018-06-25T20:49:38.248Z,101456.28
2018-06-25T20:52:07.529Z,101458.91
2018-06-25T20:54:36.780Z,101466.38
2018-06-25T20:57:06.042Z,101461.09
2018-06-25T20:59:35.219Z,101466.35
2018-06-25T21:02:04.479Z,101467.22
2018-06-25T21:04:34.349Z,101471.16
2018-06-25T21:07:03.563Z,101471.59
2018-06-25T21:09:32.752Z,101475.13
2018-06-25T21:12:01.934Z,101472.47
2018-06-25T21:14:31.045Z,101473.33
2018-06-25T21:17:00.207Z,101473.31
2018-06-25T21:19:30.173Z,101477.70
2018-06-25T21:21:59.325Z,101473.31
2018-06-25T21:24:28.531Z,101473.31
2018-06-25T21:26:57.719Z,101470.23
2018-06-25T21:29:26.943Z,101471.11
2018-06-25T21:31:56.123Z,101461.01
2018-06-25T21:34:25.272Z,101464.09
2018-06-25T21:36:54.746Z,101458.39
2018-06-25T21:39:23.949Z,101460.12
2018-06-25T21:41:53.119Z,101464.49
2018-06-25T21:44:22.340Z,101468.85
2018-06-25T21:46:51.656Z,101471.45
2018-06-25T21:49:20.785Z,101474.50
2018-06-25T21:51:49.941Z,101467.90
2018-06-25T21:54:19.068Z,101476.66
2018-06-25T21:56:48.216Z,101468.77
2018-06-25T21:59:17.481Z,101473.55
2018-06-25T22:01:52.875Z,101473.95
2018-06-25T22:04:22.596Z,101470.00
2018-06-25T22:06:52.031Z,101473.95
2018-06-25T22:09:22.717Z,101473.52
2018-06-25T22:11:53.731Z,101480.51
2018-06-25T22:14:25.518Z,101487.50
2018-06-25T22:16:55.767Z,101495.38
2018-06-25T22:19:26.400Z,101493.59
2018-06-25T22:21:55.720Z,101498.85
2018-06-25T22:24:26.188Z,101500.60
2018-06-25T22:26:57.451Z,101492.27
2018-06-25T22:29:29.209Z,101498.83
2018-06-25T22:32:02.996Z,101502.33
2018-06-25T22:34:32.242Z,101506.25
2018-06-25T22:37:03.632Z,101502.73
2018-06-25T22:39:33.656Z,101501.41
2018-06-25T22:42:04.124Z,101496.55
2018-06-25T22:44:34.536Z,101503.14
2018-06-25T22:47:06.832Z,101500.48
2018-06-25T22:49:38.416Z,101505.73
2018-06-25T22:52:08.472Z,101505.72
2018-06-25T22:54:41.561Z,101509.22
2018-06-25T22:57:10.866Z,101507.92
2018-06-25T22:59:41.121Z,101504.43
2018-06-25T23:02:10.851Z,101497.87
2018-06-25T23:04:42.481Z,101503.58
2018-06-25T23:07:13.443Z,101509.72
2018-06-25T23:09:43.740Z,101511.89
2018-06-25T23:12:13.664Z,101511.42
2018-06-25T23:14:44.489Z,101507.87
2018-06-25T23:17:16.064Z,101506.55
2018-06-25T23:19:45.251Z,101504.34
2018-06-25T23:22:16.034Z,101505.66
2018-06-25T23:24:45.697Z,101511.34
2018-06-25T23:27:15.452Z,101518.80
2018-06-25T23:29:46.381Z,101513.50
2018-06-25T23:32:17.857Z,101515.20
2018-06-25T23:34:48.942Z,101527.45
2018-06-25T23:37:18.537Z,101521.73
2018-06-25T23:39:50.909Z,101525.70
2018-06-25T23:42:20.106Z,101524.80
2018-06-25T23:44:51.932Z,101522.13
2018-06-25T23:47:23.047Z,101523.86
2018-06-25T23:49:54.916Z,101522.52
2018-06-25T23:52:24.747Z,101526.00
2018-06-25T23:54:56.417Z,101524.64
2018-06-25T23:57:28.320Z,101520.17
2018-06-25T23:59:58.394Z,101519.26
